Aérodrome :
LOGIN :

S'inscrire | Disclaimer

   EN    FR    IT 

 










Légende :    VFR   VFR Marginal   IFR   IFR Intensif   IFR Très Intensif
Visi : 
Plafond : 
>= 8 km
>= 3000ft
5 à 8 km
1000 à 3000 ft
1500m à 5 km
500 à 1000 ft
800 à 1500m
200 à 500 ft
< 800m
< 200 ft
Symboles :   Orages  Brouillard  Fortes neiges  Fortes précipitations  Vent > 20 kt
SIGMETs :   Divers  Orages  Givrage  Turbulence  Onde Orograph.  Cendres Volcan.






- Altitude de l'aérodrome : 290 ft
- Code IATA : OSI


LDOS - Osijek

DERNIER METAR :
  • 062200Z 13011KT CAVOK 08/M07 Q1031

METARs EXPIRÉS :
  • 062130Z 13012KT CAVOK 09/M07 Q1031
  • 062100Z 12011KT CAVOK 05/M07 Q1030
  • 062030Z 12005KT CAVOK 07/M08 Q1031
  • 062000Z 10005KT CAVOK 06/M07 Q1030
  • 061930Z 11009KT CAVOK 07/M07 Q1030

TAF COR TAF LDOS
Valide du 06 à 18h jusqu'au 07 à 18h UTC


061733Z 0618/0718 13015KT CAVOK TX18/0713Z TN04/0704Z
TEMPO 0618/0718 13018G30KT



MET'MAP, la Météo Aéronautique d'un coup d'oeil ! - Copyright ORBIFLY Décembre 2007 - Disclaimer

ORBIFLY MET'MAP TEAM :

Programmation & Développement : Alexandra Zaïnal
Sur une idée originale de : Baudouin d'Aumeries
Assistance à la programmation : Marc-Olivier Méhu
Soutien technique & logistique : Manuel Goepfert

Contact : metmap@orbifly.com




SOURCES & CREDITS :

   NOAA